Time;durP1;ratioP1;P1;durP2;ratioP2;P2;SDS_P1;SDS_P2;PMS_P1;PMS_P2;Temp;Humidity;BMP_temperature;BMP_pressure;BME280_temperature;BME280_humidity;BME280_pressure;Samples;Min_cycle;Max_cycle;Signal;HPM_P1;HPM_P2
2022/11/03 00:01:42;;;;;;;;;;;;;;;21.68;50.00;101235.67;1757439;78;21080;-92
2022/11/03 00:04:11;;;;;;;13.43;8.78;;;;;;;21.67;49.96;101236.80;1766019;79;20232;-90
2022/11/03 00:06:38;;;;;;;14.63;9.43;;;;;;;21.65;50.02;101242.64;1770100;78;21055;-91
2022/11/03 00:09:07;;;;;;;15.15;9.55;;;;;;;21.66;49.99;101241.52;1760947;79;21958;-91
2022/11/03 00:11:34;;;;;;;12.10;8.73;;;;;;;21.66;50.00;101235.16;1757657;79;21195;-90
2022/11/03 00:14:01;;;;;;;12.78;8.53;;;;;;;21.67;49.96;101243.72;1767963;78;21106;-90
2022/11/03 00:16:29;;;;;;;15.18;8.93;;;;;;;21.66;49.93;101247.62;1762444;78;21073;-91
2022/11/03 00:18:55;;;;;;;14.65;9.18;;;;;;;21.66;49.93;101251.21;1769544;79;21076;-91
2022/11/03 00:21:22;;;;;;;14.40;8.50;;;;;;;21.66;49.94;101247.05;1741591;78;21063;-91
2022/11/03 00:23:48;;;;;;;14.53;9.15;;;;;;;21.68;49.92;101253.67;1769833;79;21395;-91
2022/11/03 00:26:20;;;;;;;13.70;8.93;;;;;;;21.67;49.91;101257.56;1770698;79;21097;-91
2022/11/03 00:28:51;;;;;;;12.55;9.15;;;;;;;21.68;49.88;101259.21;1762443;80;21026;-90
2022/11/03 00:31:25;;;;;;;13.35;9.25;;;;;;;21.68;49.86;101259.21;1761653;79;21034;-90
2022/11/03 00:33:52;;;;;;;14.03;9.00;;;;;;;21.67;49.86;101265.88;1766903;79;21109;-90
2022/11/03 00:36:21;;;;;;;14.60;9.50;;;;;;;21.67;49.82;101271.41;1736454;80;21059;-90
2022/11/03 00:38:47;;;;;;;12.28;8.80;;;;;;;21.67;49.82;101268.64;1765848;78;21475;-90
2022/11/03 00:41:52;;;;;;;15.10;9.18;;;;;;;21.67;49.79;101276.39;1778866;80;21072;-91
2022/11/03 00:44:19;;;;;;;11.28;8.90;;;;;;;21.66;49.78;101280.28;1775629;80;21582;-90
2022/11/03 00:46:45;;;;;;;12.82;8.55;;;;;;;21.66;49.78;101280.84;1776011;79;21168;-91
2022/11/03 00:49:12;;;;;;;13.53;9.35;;;;;;;21.66;49.74;101280.28;1778104;80;21048;-90
2022/11/03 00:51:38;;;;;;;11.28;8.50;;;;;;;21.65;49.75;101280.02;1756844;79;21036;-91
2022/11/03 00:54:06;;;;;;;12.13;8.70;;;;;;;21.65;49.74;101282.80;1755789;79;21027;-90
2022/11/03 00:56:35;;;;;;;14.60;9.20;;;;;;;21.66;49.73;101289.98;1767311;79;21060;-91
2022/11/03 01:02:23;;;;;;;14.10;8.85;;;;;;;21.67;49.71;101294.39;1780504;80;21045;-90
2022/11/03 01:07:35;;;;;;;13.05;8.45;;;;;;;21.65;49.67;101286.95;1777593;80;21052;-90
2022/11/03 01:10:02;;;;;;;12.47;8.05;;;;;;;21.64;49.66;101291.44;1763174;79;21063;-91
2022/11/03 01:12:29;;;;;;;12.60;8.78;;;;;;;21.64;49.66;101285.30;1776344;79;21158;-91
2022/11/03 01:14:58;;;;;;;12.80;8.45;;;;;;;21.64;49.66;101285.30;1772367;80;21074;-91
2022/11/03 01:17:26;;;;;;;14.03;8.73;;;;;;;21.64;49.66;101286.69;1726892;81;21620;-90
2022/11/03 01:19:56;;;;;;;;;;;;;;;21.64;49.63;101291.44;1731494;81;22216;-90
2022/11/03 01:22:22;;;;;;;13.40;8.75;;;;;;;21.62;49.60;101283.43;1729131;81;20222;-91
2022/11/03 01:24:50;;;;;;;11.12;8.25;;;;;;;21.61;49.64;101287.32;1728612;81;21115;-91
2022/11/03 01:27:19;;;;;;;11.45;8.30;;;;;;;21.62;49.63;101286.20;1741014;81;21325;-90
2022/11/03 01:29:45;;;;;;;11.97;8.63;;;;;;;21.62;49.63;101288.97;1757659;80;21024;-91
2022/11/03 01:32:12;;;;;;;11.40;7.28;;;;;;;21.62;49.62;101286.76;1759113;79;21103;-90
2022/11/03 01:34:38;;;;;;;11.80;8.23;;;;;;;21.62;49.61;101286.20;1772278;79;21036;-90
2022/11/03 01:37:05;;;;;;;10.93;8.58;;;;;;;21.63;49.60;101293.95;1759029;80;21676;-91
2022/11/03 01:39:31;;;;;;;11.20;8.05;;;;;;;21.64;49.58;101298.36;1747530;80;21028;-92
2022/11/03 01:41:58;;;;;;;13.35;8.38;;;;;;;21.64;49.57;101298.36;1747994;80;21756;-89
2022/11/03 01:44:28;;;;;;;12.05;8.70;;;;;;;21.63;49.56;101291.17;1750280;80;21017;-91
2022/11/03 01:47:14;;;;;;;12.20;8.93;;;;;;;21.63;49.54;101294.77;1747984;80;25364;-91
2022/11/03 01:49:49;;;;;;;12.03;8.58;;;;;;;21.63;49.55;101297.53;1684156;84;21038;-91
2022/11/03 01:52:39;;;;;;;14.23;8.93;;;;;;;21.62;49.49;101300.05;1715256;83;21008;-91
2022/11/03 01:55:11;;;;;;;11.10;7.83;;;;;;;21.63;49.48;101291.17;1671854;85;21052;-90
2022/11/03 01:57:42;;;;;;;12.45;8.05;;;;;;;21.62;49.48;101291.73;1701442;83;21076;-91
2022/11/03 02:00:10;;;;;;;11.18;7.45;;;;;;;21.61;49.45;101287.32;1659131;84;21082;-91
2022/11/03 02:02:37;;;;;;;13.03;8.40;;;;;;;21.62;49.46;101291.73;1697558;83;21110;-90
2022/11/03 02:05:04;;;;;;;15.10;8.68;;;;;;;21.61;49.45;101290.09;1660826;84;21097;-91
2022/11/03 02:07:38;;;;;;;14.07;8.55;;;;;;;21.62;49.46;101294.50;1684326;84;21407;-90
2022/11/03 02:10:07;;;;;;;13.83;9.70;;;;;;;21.62;49.44;101299.22;1681748;84;38741;-90
2022/11/03 02:12:40;;;;;;;11.73;8.23;;;;;;;21.76;49.06;101299.44;1679417;83;21165;-90
2022/11/03 02:15:11;;;;;;;12.60;8.30;;;;;;;21.74;49.16;101297.53;1696431;84;21200;-91
2022/11/03 02:17:38;;;;;;;12.47;8.25;;;;;;;21.74;49.20;101302.25;1683150;83;21086;-91
2022/11/03 02:20:17;;;;;;;10.48;8.20;;;;;;;21.71;49.21;101302.33;1690021;83;21098;-90
2022/11/03 02:23:12;;;;;;;10.32;7.47;;;;;;;21.71;49.21;101307.05;1670021;83;21086;-91
2022/11/03 02:25:47;;;;;;;10.82;7.55;;;;;;;21.70;49.22;101310.38;1696569;83;21787;-91
2022/11/03 02:28:20;;;;;;;12.55;7.95;;;;;;;21.69;49.21;101313.45;1680712;83;21860;-91
2022/11/03 02:31:12;;;;;;;12.65;8.13;;;;;;;21.67;49.23;101318.49;1723032;82;21005;-90
2022/11/03 02:33:47;;;;;;;11.03;7.58;;;;;;;21.66;49.21;101319.05;1695258;83;21176;-91
2022/11/03 02:36:44;;;;;;;11.55;7.85;;;;;;;21.65;49.22;101316.59;1770260;80;21053;-92
2022/11/03 02:39:15;;;;;;;13.22;8.73;;;;;;;21.64;49.21;101317.14;1756138;80;21159;-90
2022/11/03 02:41:42;;;;;;;14.58;7.97;;;;;;;21.64;49.20;101319.13;1773959;80;21150;-91
2022/11/03 02:44:17;;;;;;;13.60;7.75;;;;;;;21.62;49.20;101321.37;1742514;81;21025;-91
2022/11/03 02:46:45;;;;;;;11.15;7.78;;;;;;;21.62;49.20;101318.04;1766887;80;21515;-91
2022/11/03 02:49:12;;;;;;;12.80;7.53;;;;;;;21.60;49.20;101321.67;1760632;80;21045;-90
2022/11/03 02:51:39;;;;;;;12.55;7.37;;;;;;;21.62;49.22;101328.30;1741749;81;21152;-91
2022/11/03 02:54:25;;;;;;;12.40;8.18;;;;;;;21.60;49.21;101328.59;1770488;80;21095;-90
2022/11/03 02:56:58;;;;;;;13.62;7.95;;;;;;;21.60;49.21;101337.50;1772909;80;21487;-90
2022/11/03 02:59:41;;;;;;;12.35;8.00;;;;;;;21.59;49.21;101335.84;1767905;80;21060;-91
2022/11/03 03:02:10;;;;;;;12.85;8.63;;;;;;;21.59;49.19;101339.44;1759747;80;21650;-90
2022/11/03 03:04:42;;;;;;;10.40;7.72;;;;;;;21.59;49.19;101340.83;1743312;79;21083;-90
2022/11/03 03:07:14;;;;;;;11.85;7.42;;;;;;;21.58;49.19;101337.80;1729999;81;21218;-91
2022/11/03 03:09:44;;;;;;;14.25;7.67;;;;;;;21.58;49.19;101339.18;1735724;81;21529;-91
2022/11/03 03:12:11;;;;;;;10.70;7.85;;;;;;;21.58;49.18;101339.18;1731582;81;21536;-91
2022/11/03 03:14:38;;;;;;;11.53;8.00;;;;;;;21.57;49.18;101338.92;1736215;81;21491;-90
2022/11/03 03:17:13;;;;;;;9.30;7.35;;;;;;;21.58;49.18;101341.95;1736045;81;21035;-91
2022/11/03 03:20:06;;;;;;;13.50;8.13;;;;;;;21.58;49.17;101334.20;1730944;81;21198;-91
2022/11/03 03:22:47;;;;;;;11.03;7.22;;;;;;;21.57;49.17;101330.61;1738507;81;21027;-90
2022/11/03 03:25:30;;;;;;;13.83;7.50;;;;;;;21.57;49.15;101336.15;1728478;81;21072;-92
2022/11/03 03:28:00;;;;;;;10.45;7.28;;;;;;;21.56;49.16;101337.84;1737098;81;21015;-90
2022/11/03 03:30:28;;;;;;;10.13;7.77;;;;;;;21.56;49.13;101345.58;1767736;80;21055;-91
2022/11/03 03:32:54;;;;;;;11.50;7.65;;;;;;;21.56;49.13;101338.66;1767031;80;21223;-91
2022/11/03 03:35:24;;;;;;;10.88;7.75;;;;;;;21.55;49.14;101345.34;1746191;80;21104;-91
2022/11/03 03:37:53;;;;;;;10.88;7.37;;;;;;;21.56;49.14;101341.98;1769320;80;21467;-91
2022/11/03 03:40:27;;;;;;;11.78;8.00;;;;;;;21.55;49.11;101345.34;1749386;80;21110;-91
2022/11/03 03:42:54;;;;;;;13.20;7.90;;;;;;;21.57;49.11;101345.02;1763699;78;21497;-91
2022/11/03 03:45:20;;;;;;;11.45;7.95;;;;;;;21.56;49.11;101347.52;1761800;79;21154;-91
2022/11/03 03:47:48;;;;;;;10.65;6.90;;;;;;;21.55;49.08;101341.20;1767163;79;21009;-91
2022/11/03 03:50:14;;;;;;;10.78;7.90;;;;;;;21.55;49.10;101350.88;1770673;79;21070;-91
2022/11/03 03:52:41;;;;;;;11.05;7.72;;;;;;;21.56;49.09;101351.11;1738315;81;21517;-90
2022/11/03 03:55:17;;;;;;;12.78;7.62;;;;;;;21.55;49.07;101353.66;1774933;79;21557;-90
2022/11/03 03:57:43;;;;;;;11.05;7.62;;;;;;;21.55;49.07;101352.27;1777228;80;21239;-91
2022/11/03 04:00:13;;;;;;;13.10;8.15;;;;;;;21.56;49.07;101359.98;1774742;79;21015;-91
2022/11/03 04:02:39;;;;;;;8.63;7.12;;;;;;;21.55;49.05;101363.34;1768814;80;21086;-90
2022/11/03 04:05:06;;;;;;;10.48;7.33;;;;;;;21.55;49.04;101364.73;1744891;80;21436;-91
2022/11/03 04:07:48;;;;;;;10.05;7.28;;;;;;;21.55;49.03;101369.45;1767659;79;21111;-91
2022/11/03 04:10:16;;;;;;;14.33;7.62;;;;;;;21.56;49.03;101376.03;1755217;79;21620;-92
2022/11/03 04:23:45;;;;;;;10.40;7.37;;;;;;;21.54;48.97;101371.39;1770954;80;22090;-91
2022/11/03 04:26:17;;;;;;;11.05;7.58;;;;;;;21.55;48.96;101373.59;1758858;79;21099;-90
2022/11/03 04:28:45;;;;;;;12.82;7.47;;;;;;;21.56;48.92;101368.29;1777505;80;21167;-91
2022/11/03 04:31:13;;;;;;;9.83;7.35;;;;;;;21.58;48.90;101364.66;1769345;78;21569;-91
2022/11/03 04:33:40;;;;;;;10.48;6.92;;;;;;;21.61;48.88;101371.78;1774896;79;21095;-90
2022/11/03 04:36:19;;;;;;;9.58;6.60;;;;;;;21.66;48.84;101374.44;1768372;78;21760;-91
2022/11/03 04:38:46;;;;;;;10.00;7.10;;;;;;;21.70;48.77;101378.22;1767157;80;21110;-90
2022/11/03 04:41:26;;;;;;;10.10;6.60;;;;;;;21.76;48.68;101374.22;1722143;80;21612;-90
2022/11/03 04:43:53;;;;;;;12.27;6.33;;;;;;;21.83;48.59;101375.98;1762746;78;21008;-90
2022/11/03 04:46:26;;;;;;;10.40;6.80;;;;;;;21.91;48.49;101377.75;1763426;78;21354;-90
2022/11/03 04:48:54;;;;;;;9.78;6.37;;;;;;;21.99;48.37;101370.11;1776633;79;21559;-90
2022/11/03 04:51:24;;;;;;;10.10;6.83;;;;;;;22.07;48.25;101371.56;1774168;79;21437;-91
2022/11/03 04:54:03;;;;;;;10.40;5.97;;;;;;;22.15;48.14;101365.86;1760893;78;21036;-91
2022/11/03 04:56:29;;;;;;;7.85;5.50;;;;;;;22.24;48.01;101373.64;1758347;79;21013;-90
2022/11/03 04:58:57;;;;;;;10.98;6.85;;;;;;;22.32;47.88;101365.95;1761176;79;21042;-92
2022/11/03 05:01:23;;;;;;;10.23;6.20;;;;;;;22.43;47.70;101375.67;1694535;80;22265;-91
2022/11/03 05:03:52;;;;;;;7.85;5.92;;;;;;;22.53;47.58;101377.38;1729874;80;21673;-91
2022/11/03 05:06:25;;;;;;;10.85;6.55;;;;;;;22.61;47.45;101388.52;1751171;80;21206;-91
2022/11/03 05:09:00;;;;;;;9.68;6.17;;;;;;;22.69;47.31;101390.55;1761046;80;21177;-90
2022/11/03 05:11:40;;;;;;;9.75;6.55;;;;;;;22.79;47.20;101394.98;1777124;80;21723;-90
2022/11/03 05:14:17;;;;;;;10.58;6.20;;;;;;;22.87;47.09;101385.09;1694009;83;21880;-91
2022/11/03 05:16:44;;;;;;;7.95;5.67;;;;;;;22.94;46.98;101392.38;1694543;82;21081;-91
2022/11/03 05:19:21;;;;;;;14.28;6.53;;;;;;;23.02;46.91;101405.48;1697178;83;21147;-90
2022/11/03 05:21:48;;;;;;;9.53;6.40;;;;;;;23.08;46.86;101400.87;1731269;80;21608;-92
2022/11/03 05:24:18;;;;;;;10.20;6.60;;;;;;;23.13;46.76;101404.86;1693992;81;21042;-91
2022/11/03 05:26:44;;;;;;;13.43;6.97;;;;;;;23.20;46.69;101409.97;1724724;80;21836;-92
2022/11/03 05:29:15;;;;;;;12.75;5.92;;;;;;;23.27;46.62;101412.27;1696499;83;21163;-91
2022/11/03 05:31:41;;;;;;;;;;;;;;;23.30;46.53;101413.83;1683034;83;21013;-90
2022/11/03 05:34:39;;;;;;;37.55;8.10;;;;;;;23.33;46.46;101428.48;1720997;82;20143;-91
2022/11/03 05:37:33;;;;;;;27.90;8.08;;;;;;;23.36;46.50;101421.45;1735146;81;21082;-91
2022/11/03 05:40:23;;;;;;;32.80;8.05;;;;;;;23.39;46.36;101433.30;1699994;82;21959;-91
2022/11/03 05:42:57;;;;;;;31.95;8.25;;;;;;;23.39;46.20;101436.07;1696656;83;22821;-91
2022/11/03 05:45:34;;;;;;;24.85;7.95;;;;;;;23.38;46.13;101442.78;1694215;83;21137;-91
2022/11/03 05:48:02;;;;;;;18.80;8.00;;;;;;;23.37;46.07;101451.69;1724453;81;21906;-91
2022/11/03 05:50:33;;;;;;;29.60;8.10;;;;;;;23.37;46.06;101455.03;1681445;83;21171;-91
2022/11/03 05:53:29;;;;;;;22.82;8.08;;;;;;;23.35;46.10;101457.30;1671745;84;21119;-91
2022/11/03 05:56:00;;;;;;;22.25;8.03;;;;;;;23.35;46.09;101465.62;1686175;83;21128;-91
2022/11/03 05:58:40;;;;;;;21.57;8.23;;;;;;;23.32;46.07;101465.70;1699446;82;21801;-90
2022/11/03 06:01:27;;;;;;;26.13;8.97;;;;;;;23.30;46.07;101470.75;1706958;83;21407;-90
2022/11/03 06:03:54;;;;;;;34.75;8.73;;;;;;;23.25;46.13;101467.31;1713250;81;21031;-89
2022/11/03 06:06:56;;;;;;;24.70;8.15;;;;;;;23.20;46.14;101471.87;1719562;81;21207;-91
2022/11/03 06:09:20;;;;;;;39.88;8.53;;;;;;;23.17;46.26;101479.98;1661606;83;21645;-90
2022/11/03 06:11:51;;;;;;;37.28;8.85;;;;;;;23.13;46.37;101485.36;1655997;83;21693;-91
2022/11/03 06:14:23;;;;;;;25.45;10.05;;;;;;;23.09;46.39;101486.31;1677169;82;21187;-91
2022/11/03 06:17:04;;;;;;;31.93;11.25;;;;;;;23.05;46.31;101494.46;1687867;83;21048;-90
2022/11/03 06:19:41;;;;;;;30.65;12.23;;;;;;;23.01;46.19;101498.19;1668086;83;22120;-91
2022/11/03 06:22:18;;;;;;;36.00;12.85;;;;;;;22.95;45.98;101494.75;1721924;81;21555;-91
2022/11/03 06:24:44;;;;;;;36.13;13.38;;;;;;;22.90;45.88;101500.42;1719940;81;21026;-90
2022/11/03 06:27:18;;;;;;;27.35;13.53;;;;;;;22.86;45.83;101503.58;1703533;80;21084;-90
2022/11/03 06:30:00;;;;;;;25.30;11.35;;;;;;;22.83;45.76;101503.40;1752166;80;21092;-91
2022/11/03 06:32:27;;;;;;;28.20;10.88;;;;;;;22.79;45.92;101500.41;1743171;80;21130;-90
2022/11/03 06:34:59;;;;;;;24.23;10.80;;;;;;;22.76;46.26;101499.66;1710667;80;21068;-90
2022/11/03 06:37:30;;;;;;;25.45;10.85;;;;;;;22.73;46.33;101503.08;1714578;82;21611;-92
2022/11/03 06:40:01;;;;;;;;;;;;;;;22.71;46.28;101503.94;1679166;83;21058;-90
2022/11/03 06:42:30;;;;;;;35.00;10.40;;;;;;;22.67;46.30;101502.34;1690844;82;20240;-90
2022/11/03 06:45:22;;;;;;;23.95;10.13;;;;;;;22.64;46.41;101508.52;1699813;82;21347;-91
2022/11/03 06:47:48;;;;;;;29.52;10.85;;;;;;;22.62;46.52;101508.00;1686301;83;21102;-91
2022/11/03 06:50:28;;;;;;;27.00;11.43;;;;;;;22.61;46.65;101509.16;1694797;83;21121;-90
2022/11/03 06:52:57;;;;;;;27.00;12.30;;;;;;;22.58;46.74;101508.38;1683071;83;21126;-91
2022/11/03 06:56:03;;;;;;;28.83;11.03;;;;;;;22.56;47.07;101508.45;1692085;83;21639;-92
2022/11/03 07:01:26;;;;;;;27.87;11.70;;;;;;;22.53;47.46;101511.27;1636520;83;21180;-91
2022/11/03 07:04:00;;;;;;;31.87;10.95;;;;;;;22.53;47.68;101510.48;1762400;80;21745;-92
2022/11/03 07:06:33;;;;;;;27.60;10.50;;;;;;;22.52;47.84;101506.06;1754780;80;21108;-92
2022/11/03 07:09:00;;;;;;;28.55;10.23;;;;;;;22.52;47.95;101521.31;1762543;80;21025;-93
2022/11/03 07:11:56;;;;;;;37.83;10.93;;;;;;;22.49;48.06;101513.62;1757558;79;21108;-92
2022/11/03 07:14:33;;;;;;;41.05;11.12;;;;;;;22.49;48.16;101524.13;1664909;84;21246;-91
2022/11/03 07:17:06;;;;;;;22.98;10.60;;;;;;;22.49;48.21;101528.28;1667124;84;21095;-91
2022/11/03 07:19:40;;;;;;;;;;;;;;;22.49;48.25;101531.66;1671706;84;21095;-91
2022/11/03 07:22:15;;;;;;;29.85;9.75;;;;;;;22.46;48.33;101531.69;1659624;80;20484;-92
2022/11/03 07:24:48;;;;;;;23.50;9.85;;;;;;;22.45;48.29;101531.44;1757710;79;21328;-92
2022/11/03 07:27:27;;;;;;;26.25;10.18;;;;;;;22.44;48.37;101537.31;1778178;79;21116;-91
2022/11/03 07:30:14;;;;;;;32.00;10.00;;;;;;;22.43;48.41;101536.48;1782437;79;21131;-93
2022/11/03 07:32:40;;;;;;;31.15;10.10;;;;;;;22.43;48.45;101542.03;1767464;80;21065;-92
2022/11/03 07:35:27;;;;;;;26.42;10.82;;;;;;;22.41;48.52;101534.58;1760513;79;22107;-92
2022/11/03 07:37:55;;;;;;;23.30;9.93;;;;;;;22.40;48.54;101538.50;1756292;79;21387;-91
2022/11/03 07:40:25;;;;;;;24.43;11.35;;;;;;;22.39;48.65;101542.97;1743675;80;21598;-92
2022/11/03 07:42:57;;;;;;;30.65;10.20;;;;;;;22.39;48.66;101538.80;1760756;80;21159;-92
2022/11/03 07:45:40;;;;;;;27.07;11.15;;;;;;;22.38;48.67;101538.55;1767146;80;21072;-93
2022/11/03 07:48:36;;;;;;;29.67;10.18;;;;;;;22.36;48.82;101534.72;1774858;79;21551;-92
2022/11/03 07:51:35;;;;;;;29.92;9.78;;;;;;;22.36;49.36;101527.79;1734965;81;21696;-91
2022/11/03 08:04:03;;;;;;;30.80;10.68;;;;;;;22.32;50.48;101531.72;1680765;83;21139;-91
2022/11/03 08:07:12;;;;;;;47.08;11.60;;;;;;;22.31;50.64;101525.13;1644179;84;21119;-91
2022/11/03 08:09:41;;;;;;;36.38;10.18;;;;;;;22.32;50.77;101521.20;1512447;92;21797;-91
2022/11/03 08:12:07;;;;;;;30.50;9.88;;;;;;;22.33;50.72;101527.00;1574270;88;21106;-91
2022/11/03 08:14:34;;;;;;;33.25;10.30;;;;;;;22.33;50.71;101529.77;1591235;87;21207;-90
2022/11/03 08:17:02;;;;;;;28.62;10.98;;;;;;;22.32;50.67;101517.04;1602318;87;21619;-89
2022/11/03 08:19:43;;;;;;;21.23;9.25;;;;;;;22.33;50.66;101526.44;1623064;86;21458;-91
2022/11/03 08:22:09;;;;;;;26.87;9.85;;;;;;;22.32;50.65;101527.56;1609329;87;21127;-91
2022/11/03 08:24:39;;;;;;;25.65;10.45;;;;;;;22.31;50.62;101534.83;1620103;87;21575;-90
2022/11/03 08:27:19;;;;;;;34.13;11.20;;;;;;;22.31;50.62;101523.73;1598460;85;21121;-89
2022/11/03 08:30:09;;;;;;;26.90;10.55;;;;;;;22.30;50.65;101523.48;1590608;86;21176;-90
2022/11/03 08:32:37;;;;;;;31.70;11.03;;;;;;;22.30;50.65;101517.94;1650778;84;21385;-89
2022/11/03 08:35:04;;;;;;;29.02;11.57;;;;;;;22.31;50.68;101515.42;1673573;83;21152;-89
2022/11/03 08:37:32;;;;;;;26.12;10.85;;;;;;;22.29;50.69;101515.72;1678312;83;21462;-90
2022/11/03 08:40:01;;;;;;;30.95;10.05;;;;;;;;;;1681623;84;21171;-90
2022/11/03 08:43:07;;;;;;;;;;;;;;;;;;;;;
2022/11/03 08:45:32;;;;;;;29.48;9.23;;;;;;;;;;1639254;84;22028;-91
2022/11/03 08:47:58;;;;;;;32.20;11.28;;;;;;;22.26;50.79;101508.04;1650671;84;21147;-91
2022/11/03 08:50:45;;;;;;;44.05;11.70;;;;;;;;;;1646295;84;21222;-91
2022/11/03 08:53:54;;;;;;;;;;;;;;;;;;;;;
2022/11/03 08:56:42;;;;;;;51.48;12.65;;;;;;;22.21;51.49;101508.15;1546020;89;21255;-93
2022/11/03 08:59:58;;;;;;;;;;;;;;;;;;;;;
2022/11/03 09:08:15;;;;;;;74.22;12.20;;;;;;;22.20;52.62;101498.75;1481606;94;21167;-89
2022/11/03 09:13:48;;;;;;;36.30;9.48;;;;;;;22.22;52.81;101490.95;1561220;86;21234;-91
2022/11/03 09:16:15;;;;;;;44.27;12.88;;;;;;;22.21;52.61;101479.61;1631025;85;21112;-91
2022/11/03 09:18:48;;;;;;;39.15;10.98;;;;;;;22.21;52.41;101483.77;1625037;86;21282;-91
2022/11/03 09:21:17;;;;;;;32.40;10.32;;;;;;;22.18;51.91;101481.63;1641909;86;21187;-92
2022/11/03 09:23:44;;;;;;;25.55;10.00;;;;;;;22.16;51.61;101488.03;1655637;86;21143;-95
2022/11/03 09:26:10;;;;;;;27.13;9.80;;;;;;;22.13;51.19;101485.33;1656294;86;21184;-94
2022/11/03 09:28:37;;;;;;;27.93;9.00;;;;;;;22.11;50.94;101479.27;1624168;86;21188;-92
2022/11/03 09:31:11;;;;;;;24.63;9.48;;;;;;;22.11;50.69;101482.03;1638238;85;21076;-92
2022/11/03 09:33:38;;;;;;;26.20;9.33;;;;;;;22.12;50.47;101480.09;1588974;89;21700;-93
2022/11/03 09:36:50;;;;;;;;;;;;;;;;;;;;;
2022/11/03 09:58:17;;;;;;;29.05;8.55;;;;;;;22.02;49.62;101457.61;1570076;88;22058;-91
2022/11/03 10:03:43;;;;;;;24.72;7.67;;;;;;;22.01;49.36;101449.03;1431392;94;22092;-91
2022/11/03 10:06:10;;;;;;;22.82;9.10;;;;;;;22.00;49.16;101444.61;1581839;85;21193;-91
2022/11/03 10:08:40;;;;;;;15.98;7.70;;;;;;;22.00;48.98;101447.95;1673837;81;21219;-90
2022/11/03 10:11:08;;;;;;;21.57;7.85;;;;;;;22.01;48.89;101441.28;1756690;80;21056;-90
2022/11/03 10:13:40;;;;;;;15.75;7.45;;;;;;;22.01;48.87;101442.11;1746126;80;21058;-91
2022/11/03 10:16:09;;;;;;;18.67;7.55;;;;;;;22.04;48.81;101441.47;1751676;80;21386;-93
2022/11/03 10:18:36;;;;;;;20.17;7.65;;;;;;;22.03;48.72;101436.23;1756428;80;21094;-90
2022/11/03 10:21:11;;;;;;;15.28;7.33;;;;;;;22.03;48.68;101438.44;1746732;80;21623;-91
2022/11/03 10:23:38;;;;;;;17.10;7.03;;;;;;;22.03;48.50;101434.84;1768768;79;21198;-90
2022/11/03 10:26:10;;;;;;;13.55;7.05;;;;;;;22.02;48.42;101427.69;1749861;79;21084;-90
2022/11/03 10:28:37;;;;;;;15.28;7.75;;;;;;;22.03;48.42;101432.08;1757862;79;21141;-92
2022/11/03 10:31:08;;;;;;;21.93;7.90;;;;;;;22.03;48.40;101427.36;1761521;80;21431;-91
2022/11/03 10:33:37;;;;;;;14.38;7.40;;;;;;;22.03;48.36;101426.53;1725344;81;21296;-90
2022/11/03 10:36:21;;;;;;;21.12;7.05;;;;;;;22.04;48.31;101420.69;1705147;81;21077;-92
2022/11/03 10:38:56;;;;;;;16.35;6.92;;;;;;;22.04;48.28;101419.87;1695303;81;21093;-91
2022/11/03 10:45:16;;;;;;;17.98;6.60;;;;;;;22.06;48.13;101419.00;1673408;82;21152;-92
2022/11/03 10:48:08;;;;;;;18.95;6.92;;;;;;;22.06;48.05;101410.69;1699457;82;21455;-92
2022/11/03 10:51:16;;;;;;;16.27;7.28;;;;;;;22.06;47.98;101409.30;1744680;80;21912;-91
2022/11/03 10:53:54;;;;;;;25.02;7.15;;;;;;;22.06;47.90;101405.15;1732069;82;21139;-92
2022/11/03 10:56:48;;;;;;;20.23;6.62;;;;;;;22.02;47.64;101402.19;1682917;82;21090;-92
2022/11/03 11:06:27;;;;;;;19.00;6.20;;;;;;;22.03;47.72;101396.05;1632813;84;21171;-91
2022/11/03 11:09:24;;;;;;;14.28;6.75;;;;;;;22.02;47.65;101391.11;1726198;80;21215;-93
2022/11/03 11:12:08;;;;;;;20.65;6.53;;;;;;;22.03;47.52;101384.97;1713324;81;21052;-90
2022/11/03 11:14:56;;;;;;;17.40;6.75;;;;;;;22.00;47.35;101382.84;1719553;80;21074;-91
2022/11/03 11:17:48;;;;;;;14.15;6.33;;;;;;;22.01;47.33;101381.71;1705236;81;22012;-91
2022/11/03 11:20:28;;;;;;;18.30;6.22;;;;;;;21.99;47.34;101373.70;1709704;82;21561;-91
2022/11/03 11:29:34;;;;;;;10.78;5.90;;;;;;;21.94;47.41;101360.55;1640814;84;21125;-90
2022/11/03 11:32:40;;;;;;;13.58;5.28;;;;;;;21.94;47.36;101360.55;1640134;85;21366;-92
2022/11/03 11:35:25;;;;;;;11.93;5.53;;;;;;;21.94;47.34;101357.78;1678884;83;21112;-94
2022/11/03 11:37:52;;;;;;;10.18;5.40;;;;;;;21.94;47.23;101357.78;1672311;83;21638;-90
2022/11/03 11:40:33;;;;;;;9.83;5.00;;;;;;;21.94;47.17;101355.81;1684302;83;21089;-90
2022/11/03 11:43:24;;;;;;;11.50;5.90;;;;;;;21.96;47.10;101345.25;1741492;80;21017;-91
2022/11/03 11:46:25;;;;;;;12.07;5.50;;;;;;;21.94;46.93;101350.27;1744020;79;21094;-91
2022/11/03 11:49:26;;;;;;;12.55;5.50;;;;;;;21.94;46.89;101347.50;1759235;80;21093;-94
2022/11/03 11:51:53;;;;;;;13.28;5.30;;;;;;;21.93;46.63;101339.52;1744213;80;21040;-91
2022/11/03 11:54:37;;;;;;;17.48;5.55;;;;;;;21.91;46.52;101337.58;1734130;79;21481;-89
2022/11/03 11:57:09;;;;;;;21.20;5.70;;;;;;;21.91;46.49;101334.81;1752066;79;21054;-88
2022/11/03 11:59:38;;;;;;;27.07;6.42;;;;;;;21.92;46.68;101326.77;1738343;80;21747;-88
2022/11/03 12:02:12;;;;;;;37.48;7.03;;;;;;;21.97;46.76;101322.52;1755116;80;21096;-88
2022/11/03 12:04:39;;;;;;;29.35;6.67;;;;;;;22.00;46.82;101321.31;1756014;80;21616;-88
2022/11/03 12:07:13;;;;;;;45.40;7.80;;;;;;;22.04;46.90;101319.55;1678771;80;21105;-89
2022/11/03 12:52:04;;;;;;;11.75;5.42;;;;;;;22.04;46.79;101290.45;1583430;87;21119;-89
2022/11/03 12:54:24;;;;;;;36.50;6.00;;;;;;;22.02;46.61;101293.30;1630916;84;21171;-88
2022/11/03 12:56:55;;;;;;;33.92;6.00;;;;;;;22.02;46.72;101291.36;1716809;82;22098;-89
2022/11/03 12:59:25;;;;;;;47.48;6.40;;;;;;;22.07;46.59;101297.31;1695865;84;21194;-89
2022/11/03 13:02:00;;;;;;;52.00;7.55;;;;;;;22.12;46.15;101295.80;1695312;82;21060;-89
2022/11/03 13:04:26;;;;;;;67.03;7.85;;;;;;;22.14;45.76;101294.37;1686030;82;21662;-91
2022/11/03 13:06:53;;;;;;;41.60;7.08;;;;;;;22.13;45.61;101287.19;1686570;83;21223;-91
2022/11/03 13:09:21;;;;;;;49.42;6.28;;;;;;;22.14;45.55;101286.05;1691015;82;21597;-91
2022/11/03 13:14:50;;;;;;;32.48;6.80;;;;;;;22.13;45.41;101283.59;1731931;81;20989;-89
2022/11/03 13:17:24;;;;;;;38.50;6.30;;;;;;;22.10;45.58;101288.39;1715923;81;21131;-89
2022/11/03 13:20:13;;;;;;;;;;;;;;;;;;;;;
2022/11/03 13:22:49;;;;;;;25.43;5.58;;;;;;;22.06;45.63;101279.89;1627602;83;21167;-89
2022/11/03 13:25:27;;;;;;;25.82;6.33;;;;;;;22.04;45.72;101275.78;1680011;81;21061;-90
2022/11/03 13:28:04;;;;;;;16.00;4.83;;;;;;;22.03;45.78;101275.52;1740435;81;21103;-90
2022/11/03 13:30:49;;;;;;;17.10;5.33;;;;;;;22.01;45.84;101275.86;1707535;81;20960;-91
2022/11/03 13:33:22;;;;;;;18.45;4.65;;;;;;;22.00;45.89;101274.22;1716363;81;21275;-91
2022/11/03 13:36:48;;;;;;;;;;;;;;;;;;;;;
2022/11/03 13:39:17;;;;;;;15.53;5.90;;;;;;;22.02;46.02;101275.30;1619133;86;21120;-90
2022/11/03 13:42:28;;;;;;;19.05;5.50;;;;;;;22.02;46.03;101272.52;1668641;83;21571;-89
2022/11/03 13:44:55;;;;;;;12.88;5.05;;;;;;;22.03;46.03;101267.21;1715413;81;21117;-88
2022/11/03 13:47:34;;;;;;;11.73;4.87;;;;;;;22.04;46.03;101270.23;1707899;81;21351;-90
2022/11/03 13:50:36;;;;;;;24.90;5.75;;;;;;;22.04;46.05;101268.30;1686230;82;21621;-92
2022/11/03 13:52:44;;;;;;;25.60;5.78;;;;;;;22.03;46.04;101269.98;1706980;81;21579;-89
2022/11/03 13:55:14;;;;;;;17.98;5.45;;;;;;;22.05;45.94;101271.88;1660774;83;21618;-88
2022/11/03 13:57:40;;;;;;;37.35;7.10;;;;;;;22.08;45.70;101275.40;1699232;83;21150;-89
2022/11/03 14:00:13;;;;;;;47.90;8.45;;;;;;;22.09;45.41;101273.71;1678854;83;21136;-89
2022/11/03 14:02:43;;;;;;;90.20;10.20;;;;;;;22.11;45.19;101271.98;1708560;81;21486;-90
2022/11/03 14:05:12;;;;;;;98.35;9.68;;;;;;;22.12;45.05;101275.02;1714622;81;21211;-92